Terminal Aerodrome Forecast
Issued by NWS

Home | Current Version | Previous Version | Text Only | Print | Product List | Glossary On
Versions: 1 2 3 4 5 6 7 8 9 10 11 12 13 14 15
000
FTUS43 KSGF 301424 AAB
TAFJLN
TAF AMD
KJLN 301424Z 3014/3112 12005KT 3SM BR SCT010
     FM301500 15005KT 5SM BR SCT030
     FM301600 18007KT P6SM SCT050
     FM310000 15006KT P6SM FEW080=

USA.gov is the U.S. government's official web portal to all federal, state and local government web resources and services.